sensor_id;sensor_type;location;lat;lon;timestamp;P1;durP1;ratioP1;P2;durP2;ratioP2
18520;SDS011;9390;51.244;6.982;2022-11-03T00:00:31;11.13;;;2.33;;
18520;SDS011;9390;51.244;6.982;2022-11-03T00:03:03;13.55;;;2.40;;
18520;SDS011;9390;51.244;6.982;2022-11-03T00:05:34;7.85;;;2.20;;
18520;SDS011;9390;51.244;6.982;2022-11-03T00:08:23;11.25;;;2.05;;
18520;SDS011;9390;51.244;6.982;2022-11-03T00:11:00;16.08;;;2.47;;
18520;SDS011;9390;51.244;6.982;2022-11-03T00:13:32;12.75;;;2.40;;
18520;SDS011;9390;51.244;6.982;2022-11-03T00:16:06;11.00;;;2.80;;
18520;SDS011;9390;51.244;6.982;2022-11-03T00:18:38;14.68;;;2.70;;
18520;SDS011;9390;51.244;6.982;2022-11-03T00:21:10;14.32;;;3.13;;
18520;SDS011;9390;51.244;6.982;2022-11-03T00:23:43;15.30;;;3.72;;
18520;SDS011;9390;51.244;6.982;2022-11-03T00:26:15;16.00;;;2.60;;
18520;SDS011;9390;51.244;6.982;2022-11-03T00:31:21;14.38;;;2.63;;
18520;SDS011;9390;51.244;6.982;2022-11-03T00:33:53;18.38;;;3.10;;
18520;SDS011;9390;51.244;6.982;2022-11-03T00:36:26;13.75;;;2.78;;
18520;SDS011;9390;51.244;6.982;2022-11-03T00:38:58;11.77;;;2.78;;
18520;SDS011;9390;51.244;6.982;2022-11-03T00:41:29;12.73;;;3.00;;
18520;SDS011;9390;51.244;6.982;2022-11-03T00:44:01;18.67;;;3.15;;
18520;SDS011;9390;51.244;6.982;2022-11-03T00:46:34;15.02;;;2.65;;
18520;SDS011;9390;51.244;6.982;2022-11-03T00:49:05;14.73;;;3.00;;
18520;SDS011;9390;51.244;6.982;2022-11-03T00:51:37;15.90;;;3.15;;
18520;SDS011;9390;51.244;6.982;2022-11-03T00:54:08;14.63;;;3.03;;
18520;SDS011;9390;51.244;6.982;2022-11-03T00:56:40;13.23;;;2.75;;
18520;SDS011;9390;51.244;6.982;2022-11-03T01:01:45;15.10;;;2.80;;
18520;SDS011;9390;51.244;6.982;2022-11-03T01:04:17;14.20;;;2.88;;
18520;SDS011;9390;51.244;6.982;2022-11-03T01:07:06;15.55;;;3.20;;
18520;SDS011;9390;51.244;6.982;2022-11-03T01:09:38;14.65;;;3.05;;
18520;SDS011;9390;51.244;6.982;2022-11-03T01:12:12;11.68;;;2.55;;
18520;SDS011;9390;51.244;6.982;2022-11-03T01:14:45;16.05;;;3.13;;
18520;SDS011;9390;51.244;6.982;2022-11-03T01:17:20;18.35;;;3.15;;
18520;SDS011;9390;51.244;6.982;2022-11-03T01:19:52;18.00;;;3.05;;
18520;SDS011;9390;51.244;6.982;2022-11-03T01:22:24;15.35;;;3.13;;
18520;SDS011;9390;51.244;6.982;2022-11-03T01:24:55;13.25;;;2.70;;
18520;SDS011;9390;51.244;6.982;2022-11-03T01:27:26;11.90;;;2.78;;
18520;SDS011;9390;51.244;6.982;2022-11-03T01:29:58;10.73;;;2.67;;
18520;SDS011;9390;51.244;6.982;2022-11-03T01:32:30;10.50;;;3.00;;
18520;SDS011;9390;51.244;6.982;2022-11-03T01:35:02;11.88;;;2.70;;
18520;SDS011;9390;51.244;6.982;2022-11-03T01:37:34;14.43;;;2.95;;
18520;SDS011;9390;51.244;6.982;2022-11-03T01:40:06;15.18;;;3.25;;
18520;SDS011;9390;51.244;6.982;2022-11-03T01:42:38;17.30;;;3.58;;
18520;SDS011;9390;51.244;6.982;2022-11-03T01:45:10;14.52;;;3.05;;
18520;SDS011;9390;51.244;6.982;2022-11-03T01:47:43;22.77;;;3.80;;
18520;SDS011;9390;51.244;6.982;2022-11-03T01:52:47;12.27;;;2.80;;
18520;SDS011;9390;51.244;6.982;2022-11-03T01:55:20;14.63;;;2.88;;
18520;SDS011;9390;51.244;6.982;2022-11-03T01:57:56;16.83;;;3.30;;
18520;SDS011;9390;51.244;6.982;2022-11-03T02:00:29;17.10;;;3.55;;
18520;SDS011;9390;51.244;6.982;2022-11-03T02:03:02;17.35;;;3.30;;
18520;SDS011;9390;51.244;6.982;2022-11-03T02:08:06;7.85;;;2.58;;
18520;SDS011;9390;51.244;6.982;2022-11-03T02:10:39;19.83;;;3.22;;
18520;SDS011;9390;51.244;6.982;2022-11-03T02:13:11;20.05;;;3.28;;
18520;SDS011;9390;51.244;6.982;2022-11-03T02:15:48;11.65;;;3.30;;
18520;SDS011;9390;51.244;6.982;2022-11-03T02:18:22;16.98;;;2.88;;
18520;SDS011;9390;51.244;6.982;2022-11-03T02:20:56;9.65;;;2.60;;
18520;SDS011;9390;51.244;6.982;2022-11-03T02:23:35;19.70;;;3.30;;
18520;SDS011;9390;51.244;6.982;2022-11-03T02:26:11;16.65;;;3.13;;
18520;SDS011;9390;51.244;6.982;2022-11-03T02:28:43;15.60;;;3.08;;
18520;SDS011;9390;51.244;6.982;2022-11-03T02:31:15;13.40;;;3.13;;
18520;SDS011;9390;51.244;6.982;2022-11-03T02:33:48;15.43;;;3.10;;
18520;SDS011;9390;51.244;6.982;2022-11-03T02:36:26;15.63;;;3.33;;
18520;SDS011;9390;51.244;6.982;2022-11-03T02:39:00;15.98;;;2.72;;
18520;SDS011;9390;51.244;6.982;2022-11-03T02:41:35;14.90;;;2.92;;
18520;SDS011;9390;51.244;6.982;2022-11-03T02:44:10;14.77;;;2.75;;
18520;SDS011;9390;51.244;6.982;2022-11-03T02:46:45;17.60;;;3.13;;
18520;SDS011;9390;51.244;6.982;2022-11-03T02:49:18;11.25;;;2.78;;
18520;SDS011;9390;51.244;6.982;2022-11-03T02:51:57;13.13;;;2.80;;
18520;SDS011;9390;51.244;6.982;2022-11-03T02:54:30;15.25;;;3.83;;
18520;SDS011;9390;51.244;6.982;2022-11-03T02:57:06;10.77;;;2.50;;
18520;SDS011;9390;51.244;6.982;2022-11-03T02:59:44;13.95;;;3.33;;
18520;SDS011;9390;51.244;6.982;2022-11-03T03:02:20;17.48;;;2.88;;
18520;SDS011;9390;51.244;6.982;2022-11-03T03:04:54;11.98;;;3.13;;
18520;SDS011;9390;51.244;6.982;2022-11-03T03:07:28;15.45;;;2.70;;
18520;SDS011;9390;51.244;6.982;2022-11-03T03:10:01;19.15;;;2.95;;
18520;SDS011;9390;51.244;6.982;2022-11-03T03:12:36;12.52;;;2.80;;
18520;SDS011;9390;51.244;6.982;2022-11-03T03:15:10;11.25;;;2.28;;
18520;SDS011;9390;51.244;6.982;2022-11-03T03:17:43;15.88;;;2.88;;
18520;SDS011;9390;51.244;6.982;2022-11-03T03:20:17;12.27;;;2.80;;
18520;SDS011;9390;51.244;6.982;2022-11-03T03:22:52;17.35;;;2.88;;
18520;SDS011;9390;51.244;6.982;2022-11-03T03:25:27;11.27;;;2.30;;
18520;SDS011;9390;51.244;6.982;2022-11-03T03:28:02;15.00;;;2.78;;
18520;SDS011;9390;51.244;6.982;2022-11-03T03:30:35;13.52;;;2.75;;
18520;SDS011;9390;51.244;6.982;2022-11-03T03:33:07;10.98;;;2.97;;
18520;SDS011;9390;51.244;6.982;2022-11-03T03:35:40;12.98;;;3.08;;
18520;SDS011;9390;51.244;6.982;2022-11-03T03:38:14;21.27;;;3.53;;
18520;SDS011;9390;51.244;6.982;2022-11-03T03:40:49;13.82;;;3.13;;
18520;SDS011;9390;51.244;6.982;2022-11-03T03:43:23;9.18;;;2.45;;
18520;SDS011;9390;51.244;6.982;2022-11-03T03:45:57;14.43;;;3.08;;
18520;SDS011;9390;51.244;6.982;2022-11-03T03:48:31;13.95;;;2.63;;
18520;SDS011;9390;51.244;6.982;2022-11-03T03:51:03;10.98;;;3.10;;
18520;SDS011;9390;51.244;6.982;2022-11-03T03:53:35;14.05;;;2.97;;
18520;SDS011;9390;51.244;6.982;2022-11-03T03:56:07;10.85;;;2.65;;
18520;SDS011;9390;51.244;6.982;2022-11-03T03:58:39;11.10;;;2.90;;
18520;SDS011;9390;51.244;6.982;2022-11-03T04:01:11;14.15;;;2.95;;
18520;SDS011;9390;51.244;6.982;2022-11-03T04:03:42;10.98;;;2.83;;
18520;SDS011;9390;51.244;6.982;2022-11-03T04:06:14;11.77;;;2.72;;
18520;SDS011;9390;51.244;6.982;2022-11-03T04:08:45;13.75;;;3.13;;
18520;SDS011;9390;51.244;6.982;2022-11-03T04:11:16;15.85;;;2.97;;
18520;SDS011;9390;51.244;6.982;2022-11-03T04:14:07;16.52;;;3.22;;
18520;SDS011;9390;51.244;6.982;2022-11-03T04:16:56;12.73;;;2.60;;
18520;SDS011;9390;51.244;6.982;2022-11-03T04:19:46;16.58;;;2.97;;
18520;SDS011;9390;51.244;6.982;2022-11-03T04:22:35;18.30;;;3.10;;
18520;SDS011;9390;51.244;6.982;2022-11-03T04:25:07;18.45;;;2.72;;
18520;SDS011;9390;51.244;6.982;2022-11-03T04:27:38;12.27;;;2.67;;
18520;SDS011;9390;51.244;6.982;2022-11-03T04:30:14;15.30;;;3.23;;
18520;SDS011;9390;51.244;6.982;2022-11-03T04:32:47;12.10;;;2.97;;
18520;SDS011;9390;51.244;6.982;2022-11-03T04:35:20;13.93;;;3.00;;
18520;SDS011;9390;51.244;6.982;2022-11-03T04:37:54;13.10;;;2.53;;
18520;SDS011;9390;51.244;6.982;2022-11-03T04:40:27;11.70;;;2.95;;
18520;SDS011;9390;51.244;6.982;2022-11-03T04:42:58;13.43;;;2.65;;
18520;SDS011;9390;51.244;6.982;2022-11-03T04:45:31;11.27;;;2.80;;
18520;SDS011;9390;51.244;6.982;2022-11-03T04:48:05;15.93;;;2.78;;
18520;SDS011;9390;51.244;6.982;2022-11-03T04:50:42;9.50;;;2.75;;
18520;SDS011;9390;51.244;6.982;2022-11-03T04:53:14;12.15;;;2.13;;
18520;SDS011;9390;51.244;6.982;2022-11-03T04:55:47;21.45;;;3.90;;
18520;SDS011;9390;51.244;6.982;2022-11-03T04:58:22;11.00;;;3.08;;
18520;SDS011;9390;51.244;6.982;2022-11-03T05:00:58;15.45;;;2.88;;
18520;SDS011;9390;51.244;6.982;2022-11-03T05:03:31;12.25;;;2.50;;
18520;SDS011;9390;51.244;6.982;2022-11-03T05:06:08;12.75;;;2.50;;
18520;SDS011;9390;51.244;6.982;2022-11-03T05:08:41;12.73;;;2.83;;
18520;SDS011;9390;51.244;6.982;2022-11-03T05:11:23;14.75;;;2.92;;
18520;SDS011;9390;51.244;6.982;2022-11-03T05:13:59;10.57;;;2.88;;
18520;SDS011;9390;51.244;6.982;2022-11-03T05:16:33;17.05;;;2.97;;
18520;SDS011;9390;51.244;6.982;2022-11-03T05:19:06;11.25;;;2.50;;
18520;SDS011;9390;51.244;6.982;2022-11-03T05:21:42;16.27;;;2.72;;
18520;SDS011;9390;51.244;6.982;2022-11-03T05:24:13;19.77;;;3.03;;
18520;SDS011;9390;51.244;6.982;2022-11-03T05:26:44;12.65;;;2.95;;
18520;SDS011;9390;51.244;6.982;2022-11-03T05:29:17;13.02;;;3.00;;
18520;SDS011;9390;51.244;6.982;2022-11-03T05:31:51;15.18;;;3.13;;
18520;SDS011;9390;51.244;6.982;2022-11-03T05:34:27;11.25;;;2.60;;
18520;SDS011;9390;51.244;6.982;2022-11-03T05:37:08;9.68;;;2.65;;
18520;SDS011;9390;51.244;6.982;2022-11-03T05:39:51;15.25;;;2.70;;
18520;SDS011;9390;51.244;6.982;2022-11-03T05:42:29;14.23;;;2.80;;
18520;SDS011;9390;51.244;6.982;2022-11-03T05:45:03;9.90;;;2.72;;
18520;SDS011;9390;51.244;6.982;2022-11-03T05:47:40;13.10;;;2.65;;
18520;SDS011;9390;51.244;6.982;2022-11-03T05:50:15;13.23;;;3.20;;
18520;SDS011;9390;51.244;6.982;2022-11-03T05:52:50;13.60;;;3.65;;
18520;SDS011;9390;51.244;6.982;2022-11-03T05:57:58;11.60;;;3.53;;
18520;SDS011;9390;51.244;6.982;2022-11-03T06:03:03;14.30;;;2.97;;
18520;SDS011;9390;51.244;6.982;2022-11-03T06:05:35;10.88;;;2.70;;
18520;SDS011;9390;51.244;6.982;2022-11-03T06:08:10;12.27;;;2.97;;
18520;SDS011;9390;51.244;6.982;2022-11-03T06:10:48;9.80;;;2.58;;
18520;SDS011;9390;51.244;6.982;2022-11-03T06:13:21;11.63;;;2.65;;
18520;SDS011;9390;51.244;6.982;2022-11-03T06:15:55;14.20;;;3.13;;
18520;SDS011;9390;51.244;6.982;2022-11-03T06:21:03;12.95;;;2.25;;
18520;SDS011;9390;51.244;6.982;2022-11-03T06:23:36;10.73;;;2.75;;
18520;SDS011;9390;51.244;6.982;2022-11-03T06:26:11;7.90;;;2.83;;
18520;SDS011;9390;51.244;6.982;2022-11-03T06:28:44;12.45;;;2.42;;
18520;SDS011;9390;51.244;6.982;2022-11-03T06:31:21;19.30;;;3.28;;
18520;SDS011;9390;51.244;6.982;2022-11-03T06:33:58;9.95;;;2.80;;
18520;SDS011;9390;51.244;6.982;2022-11-03T06:36:31;11.98;;;2.63;;
18520;SDS011;9390;51.244;6.982;2022-11-03T06:39:08;14.40;;;2.72;;
18520;SDS011;9390;51.244;6.982;2022-11-03T06:41:46;15.63;;;2.95;;
18520;SDS011;9390;51.244;6.982;2022-11-03T06:44:19;13.38;;;2.53;;
18520;SDS011;9390;51.244;6.982;2022-11-03T06:46:53;9.98;;;2.65;;
18520;SDS011;9390;51.244;6.982;2022-11-03T06:49:28;13.95;;;2.58;;
18520;SDS011;9390;51.244;6.982;2022-11-03T06:52:01;14.95;;;3.03;;
18520;SDS011;9390;51.244;6.982;2022-11-03T06:54:46;15.07;;;2.63;;
18520;SDS011;9390;51.244;6.982;2022-11-03T06:57:17;13.88;;;3.30;;
18520;SDS011;9390;51.244;6.982;2022-11-03T06:59:49;14.75;;;3.08;;
18520;SDS011;9390;51.244;6.982;2022-11-03T07:02:26;14.15;;;3.00;;
18520;SDS011;9390;51.244;6.982;2022-11-03T07:05:15;15.77;;;2.95;;
18520;SDS011;9390;51.244;6.982;2022-11-03T07:07:49;15.15;;;2.75;;
18520;SDS011;9390;51.244;6.982;2022-11-03T07:10:21;12.88;;;2.70;;
18520;SDS011;9390;51.244;6.982;2022-11-03T07:12:53;11.77;;;2.72;;
18520;SDS011;9390;51.244;6.982;2022-11-03T07:15:26;8.70;;;2.27;;
18520;SDS011;9390;51.244;6.982;2022-11-03T07:17:59;14.52;;;2.63;;
18520;SDS011;9390;51.244;6.982;2022-11-03T07:20:32;13.75;;;3.28;;
18520;SDS011;9390;51.244;6.982;2022-11-03T07:23:04;12.10;;;2.83;;
18520;SDS011;9390;51.244;6.982;2022-11-03T07:25:35;19.13;;;2.95;;
18520;SDS011;9390;51.244;6.982;2022-11-03T07:28:07;13.43;;;3.30;;
18520;SDS011;9390;51.244;6.982;2022-11-03T07:30:39;12.75;;;2.50;;
18520;SDS011;9390;51.244;6.982;2022-11-03T07:33:11;20.80;;;2.95;;
18520;SDS011;9390;51.244;6.982;2022-11-03T07:35:47;14.77;;;3.08;;
18520;SDS011;9390;51.244;6.982;2022-11-03T07:38:20;15.50;;;3.97;;
18520;SDS011;9390;51.244;6.982;2022-11-03T07:40:52;15.85;;;3.47;;
18520;SDS011;9390;51.244;6.982;2022-11-03T07:43:27;13.77;;;3.03;;
18520;SDS011;9390;51.244;6.982;2022-11-03T07:45:59;12.82;;;3.20;;
18520;SDS011;9390;51.244;6.982;2022-11-03T07:48:32;9.18;;;2.53;;
18520;SDS011;9390;51.244;6.982;2022-11-03T07:51:13;12.30;;;2.75;;
18520;SDS011;9390;51.244;6.982;2022-11-03T07:53:47;10.30;;;2.30;;
18520;SDS011;9390;51.244;6.982;2022-11-03T07:56:20;12.07;;;2.80;;
18520;SDS011;9390;51.244;6.982;2022-11-03T07:58:53;11.65;;;3.08;;
18520;SDS011;9390;51.244;6.982;2022-11-03T08:01:29;11.18;;;2.58;;
18520;SDS011;9390;51.244;6.982;2022-11-03T08:04:02;13.80;;;2.13;;
18520;SDS011;9390;51.244;6.982;2022-11-03T08:06:36;18.35;;;2.95;;
18520;SDS011;9390;51.244;6.982;2022-11-03T08:09:07;9.15;;;2.67;;
18520;SDS011;9390;51.244;6.982;2022-11-03T08:11:39;14.95;;;2.75;;
18520;SDS011;9390;51.244;6.982;2022-11-03T08:14:10;13.43;;;3.17;;
18520;SDS011;9390;51.244;6.982;2022-11-03T08:16:41;15.52;;;3.05;;
18520;SDS011;9390;51.244;6.982;2022-11-03T08:19:13;14.90;;;2.72;;
18520;SDS011;9390;51.244;6.982;2022-11-03T08:21:46;12.90;;;3.28;;
18520;SDS011;9390;51.244;6.982;2022-11-03T08:24:17;16.23;;;3.42;;
18520;SDS011;9390;51.244;6.982;2022-11-03T08:26:48;15.75;;;3.10;;
18520;SDS011;9390;51.244;6.982;2022-11-03T08:29:20;11.55;;;2.65;;
18520;SDS011;9390;51.244;6.982;2022-11-03T08:31:51;14.25;;;2.80;;
18520;SDS011;9390;51.244;6.982;2022-11-03T08:34:23;12.23;;;2.97;;
18520;SDS011;9390;51.244;6.982;2022-11-03T08:36:55;11.40;;;2.67;;
18520;SDS011;9390;51.244;6.982;2022-11-03T08:39:27;18.45;;;3.15;;
18520;SDS011;9390;51.244;6.982;2022-11-03T08:44:31;19.90;;;2.97;;
18520;SDS011;9390;51.244;6.982;2022-11-03T08:47:02;15.55;;;2.92;;
18520;SDS011;9390;51.244;6.982;2022-11-03T08:49:34;14.00;;;2.60;;
18520;SDS011;9390;51.244;6.982;2022-11-03T08:52:06;15.52;;;2.90;;
18520;SDS011;9390;51.244;6.982;2022-11-03T08:54:38;10.63;;;2.78;;
18520;SDS011;9390;51.244;6.982;2022-11-03T08:57:09;10.82;;;2.67;;
18520;SDS011;9390;51.244;6.982;2022-11-03T08:59:41;14.90;;;2.80;;
18520;SDS011;9390;51.244;6.982;2022-11-03T09:02:12;10.20;;;2.65;;
18520;SDS011;9390;51.244;6.982;2022-11-03T09:04:43;12.40;;;2.80;;
18520;SDS011;9390;51.244;6.982;2022-11-03T09:07:16;10.40;;;2.58;;
18520;SDS011;9390;51.244;6.982;2022-11-03T09:09:47;8.63;;;2.83;;
18520;SDS011;9390;51.244;6.982;2022-11-03T09:12:19;18.35;;;2.78;;
18520;SDS011;9390;51.244;6.982;2022-11-03T09:14:50;11.73;;;2.20;;
18520;SDS011;9390;51.244;6.982;2022-11-03T09:17:21;15.15;;;2.65;;
18520;SDS011;9390;51.244;6.982;2022-11-03T09:19:53;16.30;;;2.70;;
18520;SDS011;9390;51.244;6.982;2022-11-03T09:22:26;16.15;;;2.88;;
18520;SDS011;9390;51.244;6.982;2022-11-03T09:24:57;13.88;;;2.30;;
18520;SDS011;9390;51.244;6.982;2022-11-03T09:27:29;10.43;;;2.63;;
18520;SDS011;9390;51.244;6.982;2022-11-03T09:30:00;10.48;;;2.50;;
18520;SDS011;9390;51.244;6.982;2022-11-03T09:32:32;9.02;;;2.20;;
18520;SDS011;9390;51.244;6.982;2022-11-03T09:35:04;11.25;;;2.42;;
18520;SDS011;9390;51.244;6.982;2022-11-03T09:37:38;15.60;;;2.53;;
18520;SDS011;9390;51.244;6.982;2022-11-03T09:40:09;9.60;;;2.63;;
18520;SDS011;9390;51.244;6.982;2022-11-03T09:42:43;10.15;;;2.50;;
18520;SDS011;9390;51.244;6.982;2022-11-03T09:45:15;10.90;;;2.55;;
18520;SDS011;9390;51.244;6.982;2022-11-03T09:47:46;10.82;;;2.38;;
18520;SDS011;9390;51.244;6.982;2022-11-03T09:50:18;13.43;;;2.40;;
18520;SDS011;9390;51.244;6.982;2022-11-03T09:52:51;12.15;;;2.63;;
18520;SDS011;9390;51.244;6.982;2022-11-03T09:55:24;12.95;;;2.90;;
18520;SDS011;9390;51.244;6.982;2022-11-03T09:57:58;12.85;;;2.60;;
18520;SDS011;9390;51.244;6.982;2022-11-03T10:00:29;12.68;;;2.17;;
18520;SDS011;9390;51.244;6.982;2022-11-03T10:03:01;11.48;;;2.47;;
18520;SDS011;9390;51.244;6.982;2022-11-03T10:05:33;13.18;;;2.55;;
18520;SDS011;9390;51.244;6.982;2022-11-03T10:08:10;10.88;;;2.30;;
18520;SDS011;9390;51.244;6.982;2022-11-03T10:10:50;5.97;;;1.77;;
18520;SDS011;9390;51.244;6.982;2022-11-03T10:13:23;12.35;;;2.15;;
18520;SDS011;9390;51.244;6.982;2022-11-03T10:15:58;14.68;;;2.13;;
18520;SDS011;9390;51.244;6.982;2022-11-03T10:18:30;11.60;;;2.63;;
18520;SDS011;9390;51.244;6.982;2022-11-03T10:21:03;10.30;;;2.13;;
18520;SDS011;9390;51.244;6.982;2022-11-03T10:23:37;13.77;;;2.67;;
18520;SDS011;9390;51.244;6.982;2022-11-03T10:26:08;7.28;;;1.77;;
18520;SDS011;9390;51.244;6.982;2022-11-03T10:28:46;8.88;;;2.00;;
18520;SDS011;9390;51.244;6.982;2022-11-03T10:31:31;9.65;;;1.98;;
18520;SDS011;9390;51.244;6.982;2022-11-03T10:34:04;9.68;;;2.00;;
18520;SDS011;9390;51.244;6.982;2022-11-03T10:36:36;12.10;;;2.38;;
18520;SDS011;9390;51.244;6.982;2022-11-03T10:39:23;8.07;;;1.83;;
18520;SDS011;9390;51.244;6.982;2022-11-03T10:41:59;12.10;;;2.80;;
18520;SDS011;9390;51.244;6.982;2022-11-03T10:44:30;12.43;;;2.03;;
18520;SDS011;9390;51.244;6.982;2022-11-03T10:47:03;9.48;;;1.98;;
18520;SDS011;9390;51.244;6.982;2022-11-03T10:49:35;8.52;;;2.30;;
18520;SDS011;9390;51.244;6.982;2022-11-03T10:52:13;8.00;;;1.80;;
18520;SDS011;9390;51.244;6.982;2022-11-03T10:54:50;8.20;;;2.20;;
18520;SDS011;9390;51.244;6.982;2022-11-03T10:57:22;6.95;;;1.80;;
18520;SDS011;9390;51.244;6.982;2022-11-03T10:59:54;10.48;;;2.00;;
18520;SDS011;9390;51.244;6.982;2022-11-03T11:02:27;7.20;;;2.03;;
18520;SDS011;9390;51.244;6.982;2022-11-03T11:05:01;7.13;;;1.65;;
18520;SDS011;9390;51.244;6.982;2022-11-03T11:07:34;10.55;;;2.25;;
18520;SDS011;9390;51.244;6.982;2022-11-03T11:10:11;8.98;;;1.77;;
18520;SDS011;9390;51.244;6.982;2022-11-03T11:13:02;8.25;;;1.90;;
18520;SDS011;9390;51.244;6.982;2022-11-03T11:15:44;8.02;;;1.90;;
18520;SDS011;9390;51.244;6.982;2022-11-03T11:24:59;8.40;;;1.83;;
18520;SDS011;9390;51.244;6.982;2022-11-03T11:30:56;10.25;;;1.90;;
18520;SDS011;9390;51.244;6.982;2022-11-03T11:33:31;10.45;;;2.47;;
18520;SDS011;9390;51.244;6.982;2022-11-03T11:38:58;8.35;;;1.92;;
18520;SDS011;9390;51.244;6.982;2022-11-03T11:44:47;10.07;;;2.22;;
18520;SDS011;9390;51.244;6.982;2022-11-03T11:47:46;6.90;;;1.60;;
18520;SDS011;9390;51.244;6.982;2022-11-03T11:50:25;9.23;;;1.90;;
18520;SDS011;9390;51.244;6.982;2022-11-03T11:53:09;11.32;;;1.88;;
18520;SDS011;9390;51.244;6.982;2022-11-03T11:55:43;12.05;;;1.95;;
18520;SDS011;9390;51.244;6.982;2022-11-03T11:58:28;11.85;;;2.20;;
18520;SDS011;9390;51.244;6.982;2022-11-03T12:01:18;12.32;;;2.67;;
18520;SDS011;9390;51.244;6.982;2022-11-03T12:03:51;7.80;;;2.03;;
18520;SDS011;9390;51.244;6.982;2022-11-03T12:06:30;8.57;;;2.35;;
18520;SDS011;9390;51.244;6.982;2022-11-03T12:09:03;12.40;;;1.88;;
18520;SDS011;9390;51.244;6.982;2022-11-03T12:11:39;5.78;;;1.70;;
18520;SDS011;9390;51.244;6.982;2022-11-03T12:14:21;8.57;;;2.10;;
18520;SDS011;9390;51.244;6.982;2022-11-03T12:16:55;8.85;;;2.05;;
18520;SDS011;9390;51.244;6.982;2022-11-03T12:19:34;11.38;;;1.95;;
18520;SDS011;9390;51.244;6.982;2022-11-03T12:22:07;7.40;;;1.73;;
18520;SDS011;9390;51.244;6.982;2022-11-03T12:27:42;7.95;;;1.60;;
18520;SDS011;9390;51.244;6.982;2022-11-03T12:30:15;9.35;;;1.73;;
18520;SDS011;9390;51.244;6.982;2022-11-03T12:32:49;5.97;;;1.60;;
18520;SDS011;9390;51.244;6.982;2022-11-03T12:35:21;7.22;;;1.80;;
18520;SDS011;9390;51.244;6.982;2022-11-03T12:37:52;8.35;;;1.98;;
18520;SDS011;9390;51.244;6.982;2022-11-03T12:40:23;6.60;;;2.03;;
18520;SDS011;9390;51.244;6.982;2022-11-03T12:42:56;13.10;;;2.45;;
18520;SDS011;9390;51.244;6.982;2022-11-03T12:45:27;5.63;;;1.77;;
18520;SDS011;9390;51.244;6.982;2022-11-03T12:48:00;6.68;;;2.00;;
18520;SDS011;9390;51.244;6.982;2022-11-03T12:50:31;6.95;;;1.90;;
18520;SDS011;9390;51.244;6.982;2022-11-03T12:53:03;7.07;;;2.20;;
18520;SDS011;9390;51.244;6.982;2022-11-03T12:55:35;7.72;;;2.42;;
18520;SDS011;9390;51.244;6.982;2022-11-03T12:58:07;7.55;;;2.30;;
18520;SDS011;9390;51.244;6.982;2022-11-03T13:00:38;9.35;;;2.00;;
18520;SDS011;9390;51.244;6.982;2022-11-03T13:03:11;11.35;;;2.42;;
18520;SDS011;9390;51.244;6.982;2022-11-03T13:05:42;7.43;;;2.03;;
18520;SDS011;9390;51.244;6.982;2022-11-03T13:08:14;6.35;;;1.85;;
18520;SDS011;9390;51.244;6.982;2022-11-03T13:10:45;7.57;;;2.00;;
18520;SDS011;9390;51.244;6.982;2022-11-03T13:13:17;12.30;;;2.17;;
18520;SDS011;9390;51.244;6.982;2022-11-03T13:15:49;11.27;;;2.42;;
18520;SDS011;9390;51.244;6.982;2022-11-03T13:18:23;8.23;;;2.10;;
18520;SDS011;9390;51.244;6.982;2022-11-03T13:20:54;7.95;;;1.92;;
18520;SDS011;9390;51.244;6.982;2022-11-03T13:23:26;11.25;;;2.28;;
18520;SDS011;9390;51.244;6.982;2022-11-03T13:25:57;6.53;;;1.80;;
18520;SDS011;9390;51.244;6.982;2022-11-03T13:28:28;7.45;;;2.38;;
18520;SDS011;9390;51.244;6.982;2022-11-03T13:31:00;8.93;;;2.70;;
18520;SDS011;9390;51.244;6.982;2022-11-03T13:33:33;7.05;;;2.20;;
18520;SDS011;9390;51.244;6.982;2022-11-03T13:36:04;10.60;;;2.50;;
18520;SDS011;9390;51.244;6.982;2022-11-03T13:38:36;7.78;;;1.92;;
18520;SDS011;9390;51.244;6.982;2022-11-03T13:41:07;10.15;;;2.50;;
18520;SDS011;9390;51.244;6.982;2022-11-03T13:43:39;8.55;;;2.13;;
18520;SDS011;9390;51.244;6.982;2022-11-03T13:46:10;6.13;;;2.03;;
18520;SDS011;9390;51.244;6.982;2022-11-03T13:48:43;5.28;;;2.00;;
18520;SDS011;9390;51.244;6.982;2022-11-03T13:51:14;12.48;;;2.58;;
18520;SDS011;9390;51.244;6.982;2022-11-03T13:53:47;5.57;;;1.92;;
18520;SDS011;9390;51.244;6.982;2022-11-03T13:56:18;7.65;;;2.35;;
18520;SDS011;9390;51.244;6.982;2022-11-03T13:58:50;15.73;;;3.00;;
18520;SDS011;9390;51.244;6.982;2022-11-03T14:01:21;8.43;;;2.83;;
18520;SDS011;9390;51.244;6.982;2022-11-03T14:03:54;11.90;;;2.65;;
18520;SDS011;9390;51.244;6.982;2022-11-03T14:06:25;9.15;;;2.42;;
18520;SDS011;9390;51.244;6.982;2022-11-03T14:08:56;7.32;;;2.53;;
18520;SDS011;9390;51.244;6.982;2022-11-03T14:11:28;10.13;;;2.80;;
18520;SDS011;9390;51.244;6.982;2022-11-03T14:14:17;10.02;;;2.67;;
18520;SDS011;9390;51.244;6.982;2022-11-03T14:16:48;8.38;;;2.28;;
18520;SDS011;9390;51.244;6.982;2022-11-03T14:19:25;7.57;;;2.40;;
18520;SDS011;9390;51.244;6.982;2022-11-03T14:21:57;11.88;;;2.88;;
18520;SDS011;9390;51.244;6.982;2022-11-03T14:24:28;7.72;;;2.70;;
18520;SDS011;9390;51.244;6.982;2022-11-03T14:27:00;11.70;;;3.00;;
18520;SDS011;9390;51.244;6.982;2022-11-03T14:29:31;13.63;;;2.67;;
18520;SDS011;9390;51.244;6.982;2022-11-03T14:32:03;11.13;;;3.30;;
18520;SDS011;9390;51.244;6.982;2022-11-03T14:34:36;8.60;;;2.60;;
18520;SDS011;9390;51.244;6.982;2022-11-03T14:39:39;9.48;;;2.80;;
18520;SDS011;9390;51.244;6.982;2022-11-03T14:42:12;8.55;;;2.50;;
18520;SDS011;9390;51.244;6.982;2022-11-03T14:44:45;11.00;;;2.90;;
18520;SDS011;9390;51.244;6.982;2022-11-03T14:47:17;13.15;;;3.03;;
18520;SDS011;9390;51.244;6.982;2022-11-03T14:49:51;6.10;;;2.53;;
18520;SDS011;9390;51.244;6.982;2022-11-03T14:52:23;8.48;;;2.97;;
18520;SDS011;9390;51.244;6.982;2022-11-03T14:54:54;9.95;;;2.78;;
18520;SDS011;9390;51.244;6.982;2022-11-03T14:57:26;11.32;;;3.00;;
18520;SDS011;9390;51.244;6.982;2022-11-03T14:59:57;10.32;;;2.90;;
18520;SDS011;9390;51.244;6.982;2022-11-03T15:02:28;13.35;;;2.92;;
18520;SDS011;9390;51.244;6.982;2022-11-03T15:05:01;10.13;;;2.50;;
18520;SDS011;9390;51.244;6.982;2022-11-03T15:07:33;7.93;;;2.90;;
18520;SDS011;9390;51.244;6.982;2022-11-03T15:10:04;8.48;;;3.25;;
18520;SDS011;9390;51.244;6.982;2022-11-03T15:12:36;11.70;;;2.92;;
18520;SDS011;9390;51.244;6.982;2022-11-03T15:15:08;7.97;;;3.05;;
18520;SDS011;9390;51.244;6.982;2022-11-03T15:17:40;13.43;;;2.90;;
18520;SDS011;9390;51.244;6.982;2022-11-03T15:20:13;13.25;;;3.22;;
18520;SDS011;9390;51.244;6.982;2022-11-03T15:22:45;15.05;;;3.80;;
18520;SDS011;9390;51.244;6.982;2022-11-03T15:25:16;12.77;;;3.38;;
18520;SDS011;9390;51.244;6.982;2022-11-03T15:27:47;11.30;;;3.50;;
18520;SDS011;9390;51.244;6.982;2022-11-03T15:30:19;9.88;;;3.45;;
18520;SDS011;9390;51.244;6.982;2022-11-03T15:32:51;20.38;;;5.35;;
18520;SDS011;9390;51.244;6.982;2022-11-03T15:35:24;15.80;;;3.92;;
18520;SDS011;9390;51.244;6.982;2022-11-03T15:37:55;13.27;;;4.20;;
18520;SDS011;9390;51.244;6.982;2022-11-03T15:40:27;11.25;;;4.53;;
18520;SDS011;9390;51.244;6.982;2022-11-03T15:42:59;15.70;;;3.80;;
18520;SDS011;9390;51.244;6.982;2022-11-03T15:45:31;13.30;;;4.75;;
18520;SDS011;9390;51.244;6.982;2022-11-03T15:48:03;14.07;;;4.35;;
18520;SDS011;9390;51.244;6.982;2022-11-03T15:50:37;17.65;;;4.55;;
18520;SDS011;9390;51.244;6.982;2022-11-03T15:53:08;11.05;;;4.18;;
18520;SDS011;9390;51.244;6.982;2022-11-03T15:55:39;12.48;;;4.22;;
18520;SDS011;9390;51.244;6.982;2022-11-03T15:58:11;16.90;;;4.97;;
18520;SDS011;9390;51.244;6.982;2022-11-03T16:00:42;10.50;;;4.03;;
18520;SDS011;9390;51.244;6.982;2022-11-03T16:03:13;10.73;;;4.38;;
18520;SDS011;9390;51.244;6.982;2022-11-03T16:05:46;12.65;;;4.50;;
18520;SDS011;9390;51.244;6.982;2022-11-03T16:08:18;16.63;;;4.68;;
18520;SDS011;9390;51.244;6.982;2022-11-03T16:10:49;14.10;;;5.00;;